Weather at Charlotte Douglas International Airport

Public forecast

Using degrees Fahrenheit for public forecast. Weather courtesy of forecast.io.

Current aviation weather report (METAR) for Charlotte Douglas International Airport

Retrieved 2021/07/27 08:52 UTC (23 minutes ago):

KCLT 270852Z 00000KT 7SM R18C/4500VP6000FT FEW002 SCT250 21/21 A3001 RMK AO2 SLP153 T02110206 55007

Aviation forecast (TAF) for Charlotte Douglas International Airport

Retrieved 2021/07/27 06:40 UTC (3 hours ago):

TAF KCLT 270537Z 2706/2812 00000KT 6SM BR BKN250 FM270800 00000KT 5SM BR BKN250 FM271000 00000KT 2SM BR SCT004 BKN250 TEMPO 2710/2713 BKN004 FM271400 21004KT P6SM SCT050 BKN250 PROB30 2719/2801 4SM TSRA BR OVC025CB FM280800 00000KT 6SM BR SCT250